sensor_id;sensor_type;location;lat;lon;timestamp;temperature;humidity
11491;DHT22;5802;52.832;4.758;2023-05-10T00:02:17;24.10;48.10
11491;DHT22;5802;52.832;4.758;2023-05-10T00:04:44;24.10;48.00
11491;DHT22;5802;52.832;4.758;2023-05-10T00:07:11;24.10;47.90
11491;DHT22;5802;52.832;4.758;2023-05-10T00:09:37;24.10;47.90
11491;DHT22;5802;52.832;4.758;2023-05-10T00:12:04;24.00;47.80
11491;DHT22;5802;52.832;4.758;2023-05-10T00:14:32;24.00;47.80
11491;DHT22;5802;52.832;4.758;2023-05-10T00:16:59;24.00;47.80
11491;DHT22;5802;52.832;4.758;2023-05-10T00:19:26;24.00;47.80
11491;DHT22;5802;52.832;4.758;2023-05-10T00:21:52;24.00;47.80
11491;DHT22;5802;52.832;4.758;2023-05-10T00:24:19;24.00;47.80
11491;DHT22;5802;52.832;4.758;2023-05-10T00:26:45;24.00;47.80
11491;DHT22;5802;52.832;4.758;2023-05-10T00:29:12;24.00;47.80
11491;DHT22;5802;52.832;4.758;2023-05-10T00:31:40;24.00;47.70
11491;DHT22;5802;52.832;4.758;2023-05-10T00:34:08;24.00;47.70
11491;DHT22;5802;52.832;4.758;2023-05-10T00:36:34;24.00;47.70
11491;DHT22;5802;52.832;4.758;2023-05-10T00:39:01;24.00;47.70
11491;DHT22;5802;52.832;4.758;2023-05-10T00:41:28;24.00;47.70
11491;DHT22;5802;52.832;4.758;2023-05-10T00:43:57;24.00;47.70
11491;DHT22;5802;52.832;4.758;2023-05-10T00:46:23;24.00;47.70
11491;DHT22;5802;52.832;4.758;2023-05-10T00:48:52;24.00;47.70
11491;DHT22;5802;52.832;4.758;2023-05-10T00:51:19;24.00;47.70
11491;DHT22;5802;52.832;4.758;2023-05-10T00:53:46;24.00;47.70
11491;DHT22;5802;52.832;4.758;2023-05-10T00:56:13;24.00;47.70
11491;DHT22;5802;52.832;4.758;2023-05-10T00:58:40;24.00;47.70
11491;DHT22;5802;52.832;4.758;2023-05-10T01:01:06;24.00;47.70
11491;DHT22;5802;52.832;4.758;2023-05-10T01:03:35;24.00;47.60
11491;DHT22;5802;52.832;4.758;2023-05-10T01:06:04;24.00;47.60
11491;DHT22;5802;52.832;4.758;2023-05-10T01:08:30;24.00;47.60
11491;DHT22;5802;52.832;4.758;2023-05-10T01:10:57;24.00;47.60
11491;DHT22;5802;52.832;4.758;2023-05-10T01:13:32;24.00;47.60
11491;DHT22;5802;52.832;4.758;2023-05-10T01:16:00;24.00;47.60
11491;DHT22;5802;52.832;4.758;2023-05-10T01:18:29;24.00;47.60
11491;DHT22;5802;52.832;4.758;2023-05-10T01:21:06;24.00;47.60
11491;DHT22;5802;52.832;4.758;2023-05-10T01:23:51;24.00;47.60
11491;DHT22;5802;52.832;4.758;2023-05-10T01:29:49;24.00;47.60
11491;DHT22;5802;52.832;4.758;2023-05-10T01:32:29;24.00;47.70
11491;DHT22;5802;52.832;4.758;2023-05-10T01:35:01;23.90;47.60
11491;DHT22;5802;52.832;4.758;2023-05-10T01:37:33;23.90;47.60
11491;DHT22;5802;52.832;4.758;2023-05-10T01:40:08;24.00;47.60
11491;DHT22;5802;52.832;4.758;2023-05-10T01:42:39;23.90;47.50
11491;DHT22;5802;52.832;4.758;2023-05-10T01:45:14;23.90;47.50
11491;DHT22;5802;52.832;4.758;2023-05-10T01:47:46;23.90;48.20
11491;DHT22;5802;52.832;4.758;2023-05-10T01:50:17;23.90;47.50
11491;DHT22;5802;52.832;4.758;2023-05-10T01:52:47;23.90;47.50
11491;DHT22;5802;52.832;4.758;2023-05-10T01:55:18;24.00;47.50
11491;DHT22;5802;52.832;4.758;2023-05-10T01:57:49;23.90;47.50
11491;DHT22;5802;52.832;4.758;2023-05-10T02:00:18;24.00;48.20
11491;DHT22;5802;52.832;4.758;2023-05-10T02:02:48;24.00;47.60
11491;DHT22;5802;52.832;4.758;2023-05-10T02:05:16;24.00;47.60
11491;DHT22;5802;52.832;4.758;2023-05-10T02:07:44;23.90;47.60
11491;DHT22;5802;52.832;4.758;2023-05-10T02:10:12;24.00;47.70
11491;DHT22;5802;52.832;4.758;2023-05-10T02:12:42;24.00;47.60
11491;DHT22;5802;52.832;4.758;2023-05-10T02:15:12;24.00;48.20
11491;DHT22;5802;52.832;4.758;2023-05-10T02:17:39;24.00;47.60
11491;DHT22;5802;52.832;4.758;2023-05-10T02:20:10;24.00;47.60
11491;DHT22;5802;52.832;4.758;2023-05-10T02:22:38;24.00;48.30
11491;DHT22;5802;52.832;4.758;2023-05-10T02:25:07;24.00;47.50
11491;DHT22;5802;52.832;4.758;2023-05-10T02:27:35;24.00;47.60
11491;DHT22;5802;52.832;4.758;2023-05-10T02:30:04;24.00;47.60
11491;DHT22;5802;52.832;4.758;2023-05-10T02:32:33;24.00;47.50
11491;DHT22;5802;52.832;4.758;2023-05-10T02:35:01;24.00;47.50
11491;DHT22;5802;52.832;4.758;2023-05-10T02:37:30;24.00;47.60
11491;DHT22;5802;52.832;4.758;2023-05-10T02:39:58;24.00;47.50
11491;DHT22;5802;52.832;4.758;2023-05-10T02:42:27;24.00;47.50
11491;DHT22;5802;52.832;4.758;2023-05-10T02:44:59;24.00;47.50
11491;DHT22;5802;52.832;4.758;2023-05-10T02:47:27;24.00;47.50
11491;DHT22;5802;52.832;4.758;2023-05-10T02:49:54;24.00;47.50
11491;DHT22;5802;52.832;4.758;2023-05-10T02:52:24;24.00;47.50
11491;DHT22;5802;52.832;4.758;2023-05-10T02:54:55;24.00;47.50
11491;DHT22;5802;52.832;4.758;2023-05-10T02:57:26;24.10;47.50
11491;DHT22;5802;52.832;4.758;2023-05-10T02:59:54;24.10;47.50
11491;DHT22;5802;52.832;4.758;2023-05-10T03:02:21;24.10;47.50
11491;DHT22;5802;52.832;4.758;2023-05-10T03:04:47;24.10;47.50
11491;DHT22;5802;52.832;4.758;2023-05-10T03:07:14;24.10;47.50
11491;DHT22;5802;52.832;4.758;2023-05-10T03:09:42;24.10;47.50
11491;DHT22;5802;52.832;4.758;2023-05-10T03:12:14;24.10;47.50
11491;DHT22;5802;52.832;4.758;2023-05-10T03:14:51;24.10;47.50
11491;DHT22;5802;52.832;4.758;2023-05-10T03:17:23;24.10;47.50
11491;DHT22;5802;52.832;4.758;2023-05-10T03:19:54;24.10;47.40
11491;DHT22;5802;52.832;4.758;2023-05-10T03:22:29;24.10;47.40
11491;DHT22;5802;52.832;4.758;2023-05-10T03:24:58;24.10;47.40
11491;DHT22;5802;52.832;4.758;2023-05-10T03:27:30;24.10;47.40
11491;DHT22;5802;52.832;4.758;2023-05-10T03:29:57;24.10;47.30
11491;DHT22;5802;52.832;4.758;2023-05-10T03:32:24;24.10;47.30
11491;DHT22;5802;52.832;4.758;2023-05-10T03:34:52;24.10;47.30
11491;DHT22;5802;52.832;4.758;2023-05-10T03:37:19;24.10;47.30
11491;DHT22;5802;52.832;4.758;2023-05-10T03:39:46;24.10;47.30
11491;DHT22;5802;52.832;4.758;2023-05-10T03:42:12;24.10;47.20
11491;DHT22;5802;52.832;4.758;2023-05-10T03:44:40;24.10;47.20
11491;DHT22;5802;52.832;4.758;2023-05-10T03:47:07;24.10;47.20
11491;DHT22;5802;52.832;4.758;2023-05-10T03:49:33;24.10;47.20
11491;DHT22;5802;52.832;4.758;2023-05-10T03:52:00;24.10;47.20
11491;DHT22;5802;52.832;4.758;2023-05-10T03:54:27;24.10;47.20
11491;DHT22;5802;52.832;4.758;2023-05-10T03:56:53;24.20;47.20
11491;DHT22;5802;52.832;4.758;2023-05-10T03:59:20;24.20;47.80
11491;DHT22;5802;52.832;4.758;2023-05-10T04:01:48;24.20;47.20
11491;DHT22;5802;52.832;4.758;2023-05-10T04:04:15;24.20;47.10
11491;DHT22;5802;52.832;4.758;2023-05-10T04:06:43;24.20;47.10
11491;DHT22;5802;52.832;4.758;2023-05-10T04:09:10;24.20;47.10
11491;DHT22;5802;52.832;4.758;2023-05-10T04:11:37;24.20;47.10
11491;DHT22;5802;52.832;4.758;2023-05-10T04:14:04;24.20;47.10
11491;DHT22;5802;52.832;4.758;2023-05-10T04:16:30;24.20;47.10
11491;DHT22;5802;52.832;4.758;2023-05-10T04:18:58;24.20;47.10
11491;DHT22;5802;52.832;4.758;2023-05-10T04:21:25;24.20;47.10
11491;DHT22;5802;52.832;4.758;2023-05-10T04:23:52;24.20;47.00
11491;DHT22;5802;52.832;4.758;2023-05-10T04:26:18;24.20;47.00
11491;DHT22;5802;52.832;4.758;2023-05-10T04:28:45;24.20;47.00
11491;DHT22;5802;52.832;4.758;2023-05-10T04:31:12;24.20;47.00
11491;DHT22;5802;52.832;4.758;2023-05-10T04:33:38;24.20;47.00
11491;DHT22;5802;52.832;4.758;2023-05-10T04:36:07;24.20;46.90
11491;DHT22;5802;52.832;4.758;2023-05-10T04:38:34;24.20;46.90
11491;DHT22;5802;52.832;4.758;2023-05-10T04:41:07;24.20;46.90
11491;DHT22;5802;52.832;4.758;2023-05-10T04:43:35;24.20;46.90
11491;DHT22;5802;52.832;4.758;2023-05-10T04:46:02;24.20;46.90
11491;DHT22;5802;52.832;4.758;2023-05-10T04:48:28;24.20;46.90
11491;DHT22;5802;52.832;4.758;2023-05-10T04:50:55;24.20;46.90
11491;DHT22;5802;52.832;4.758;2023-05-10T04:53:23;24.20;46.80
11491;DHT22;5802;52.832;4.758;2023-05-10T04:55:50;24.20;46.90
11491;DHT22;5802;52.832;4.758;2023-05-10T04:58:17;24.20;46.80
11491;DHT22;5802;52.832;4.758;2023-05-10T05:00:43;24.20;46.80
11491;DHT22;5802;52.832;4.758;2023-05-10T05:03:10;24.20;46.80
11491;DHT22;5802;52.832;4.758;2023-05-10T05:05:37;24.20;46.70
11491;DHT22;5802;52.832;4.758;2023-05-10T05:08:04;24.20;46.80
11491;DHT22;5802;52.832;4.758;2023-05-10T05:10:32;24.20;46.80
11491;DHT22;5802;52.832;4.758;2023-05-10T05:12:58;24.20;46.70
11491;DHT22;5802;52.832;4.758;2023-05-10T05:15:25;24.20;46.70
11491;DHT22;5802;52.832;4.758;2023-05-10T05:17:53;24.20;46.70
11491;DHT22;5802;52.832;4.758;2023-05-10T05:20:20;24.20;46.70
11491;DHT22;5802;52.832;4.758;2023-05-10T05:22:47;24.20;46.70
11491;DHT22;5802;52.832;4.758;2023-05-10T05:25:14;24.30;46.70
11491;DHT22;5802;52.832;4.758;2023-05-10T05:27:42;24.20;46.70
11491;DHT22;5802;52.832;4.758;2023-05-10T05:30:10;24.30;46.70
11491;DHT22;5802;52.832;4.758;2023-05-10T05:32:37;24.30;46.70
11491;DHT22;5802;52.832;4.758;2023-05-10T05:35:04;24.30;46.70
11491;DHT22;5802;52.832;4.758;2023-05-10T05:37:31;24.30;46.60
11491;DHT22;5802;52.832;4.758;2023-05-10T05:39:57;24.30;46.60
11491;DHT22;5802;52.832;4.758;2023-05-10T05:42:26;24.30;46.60
11491;DHT22;5802;52.832;4.758;2023-05-10T05:44:54;24.30;46.60
11491;DHT22;5802;52.832;4.758;2023-05-10T05:47:22;24.30;46.70
11491;DHT22;5802;52.832;4.758;2023-05-10T05:49:49;24.30;46.70
11491;DHT22;5802;52.832;4.758;2023-05-10T05:52:15;24.30;46.70
11491;DHT22;5802;52.832;4.758;2023-05-10T05:54:43;24.30;46.80
11491;DHT22;5802;52.832;4.758;2023-05-10T05:57:09;24.30;46.80
11491;DHT22;5802;52.832;4.758;2023-05-10T05:59:36;24.30;46.70
11491;DHT22;5802;52.832;4.758;2023-05-10T06:02:08;24.30;46.70
11491;DHT22;5802;52.832;4.758;2023-05-10T06:04:35;24.30;46.60
11491;DHT22;5802;52.832;4.758;2023-05-10T06:07:01;24.30;46.60
11491;DHT22;5802;52.832;4.758;2023-05-10T06:09:28;24.30;46.50
11491;DHT22;5802;52.832;4.758;2023-05-10T06:11:55;24.30;46.50
11491;DHT22;5802;52.832;4.758;2023-05-10T06:14:21;24.30;46.50
11491;DHT22;5802;52.832;4.758;2023-05-10T06:16:48;24.30;46.50
11491;DHT22;5802;52.832;4.758;2023-05-10T06:19:16;24.30;46.50
11491;DHT22;5802;52.832;4.758;2023-05-10T06:21:43;24.30;46.50
11491;DHT22;5802;52.832;4.758;2023-05-10T06:24:09;24.30;46.50
11491;DHT22;5802;52.832;4.758;2023-05-10T06:26:36;24.30;46.50
11491;DHT22;5802;52.832;4.758;2023-05-10T06:29:03;24.30;46.50
11491;DHT22;5802;52.832;4.758;2023-05-10T06:31:29;24.30;47.10
11491;DHT22;5802;52.832;4.758;2023-05-10T06:33:56;24.30;46.40
11491;DHT22;5802;52.832;4.758;2023-05-10T06:36:24;24.30;46.40
11491;DHT22;5802;52.832;4.758;2023-05-10T06:38:51;24.30;46.40
11491;DHT22;5802;52.832;4.758;2023-05-10T06:41:18;24.30;46.40
11491;DHT22;5802;52.832;4.758;2023-05-10T06:43:45;24.40;46.50
11491;DHT22;5802;52.832;4.758;2023-05-10T06:46:12;24.40;46.50
11491;DHT22;5802;52.832;4.758;2023-05-10T06:48:39;24.40;46.50
11491;DHT22;5802;52.832;4.758;2023-05-10T06:51:05;24.40;46.50
11491;DHT22;5802;52.832;4.758;2023-05-10T06:53:33;24.40;46.40
11491;DHT22;5802;52.832;4.758;2023-05-10T06:56:00;24.40;46.40
11491;DHT22;5802;52.832;4.758;2023-05-10T06:58:28;24.40;46.40
11491;DHT22;5802;52.832;4.758;2023-05-10T07:01:01;24.40;46.50
11491;DHT22;5802;52.832;4.758;2023-05-10T07:03:28;24.40;46.40
11491;DHT22;5802;52.832;4.758;2023-05-10T07:06:00;24.50;46.40
11491;DHT22;5802;52.832;4.758;2023-05-10T07:08:28;24.50;46.40
11491;DHT22;5802;52.832;4.758;2023-05-10T07:11:00;24.50;46.40
11491;DHT22;5802;52.832;4.758;2023-05-10T07:13:29;24.50;46.40
11491;DHT22;5802;52.832;4.758;2023-05-10T07:15:56;24.50;46.40
11491;DHT22;5802;52.832;4.758;2023-05-10T07:18:23;24.50;46.30
11491;DHT22;5802;52.832;4.758;2023-05-10T07:20:49;24.50;46.30
11491;DHT22;5802;52.832;4.758;2023-05-10T07:23:16;24.60;46.30
11491;DHT22;5802;52.832;4.758;2023-05-10T07:25:45;24.60;46.30
11491;DHT22;5802;52.832;4.758;2023-05-10T07:28:13;24.60;46.20
11491;DHT22;5802;52.832;4.758;2023-05-10T07:30:40;24.60;46.20
11491;DHT22;5802;52.832;4.758;2023-05-10T07:33:07;24.70;46.20
11491;DHT22;5802;52.832;4.758;2023-05-10T07:35:34;24.70;46.20
11491;DHT22;5802;52.832;4.758;2023-05-10T07:38:01;24.70;46.10
11491;DHT22;5802;52.832;4.758;2023-05-10T07:40:29;24.70;46.10
11491;DHT22;5802;52.832;4.758;2023-05-10T07:42:56;24.70;46.00
11491;DHT22;5802;52.832;4.758;2023-05-10T07:45:24;24.80;46.00
11491;DHT22;5802;52.832;4.758;2023-05-10T07:47:50;24.80;46.00
11491;DHT22;5802;52.832;4.758;2023-05-10T07:50:17;24.80;46.00
11491;DHT22;5802;52.832;4.758;2023-05-10T07:52:44;24.90;45.90
11491;DHT22;5802;52.832;4.758;2023-05-10T07:55:11;24.80;45.80
11491;DHT22;5802;52.832;4.758;2023-05-10T07:57:37;24.90;45.80
11491;DHT22;5802;52.832;4.758;2023-05-10T08:00:05;24.90;45.80
11491;DHT22;5802;52.832;4.758;2023-05-10T08:02:35;24.90;45.70
11491;DHT22;5802;52.832;4.758;2023-05-10T08:05:01;24.90;45.70
11491;DHT22;5802;52.832;4.758;2023-05-10T08:07:28;24.90;45.70
11491;DHT22;5802;52.832;4.758;2023-05-10T08:09:57;24.90;45.60
11491;DHT22;5802;52.832;4.758;2023-05-10T08:12:24;24.90;45.60
11491;DHT22;5802;52.832;4.758;2023-05-10T08:14:51;24.90;45.60
11491;DHT22;5802;52.832;4.758;2023-05-10T08:17:18;24.90;45.70
11491;DHT22;5802;52.832;4.758;2023-05-10T08:19:46;24.90;45.70
11491;DHT22;5802;52.832;4.758;2023-05-10T08:22:12;24.90;45.60
11491;DHT22;5802;52.832;4.758;2023-05-10T08:24:39;25.00;45.70
11491;DHT22;5802;52.832;4.758;2023-05-10T08:27:07;25.00;45.70
11491;DHT22;5802;52.832;4.758;2023-05-10T08:29:34;25.00;45.60
11491;DHT22;5802;52.832;4.758;2023-05-10T08:32:01;25.00;45.60
11491;DHT22;5802;52.832;4.758;2023-05-10T08:34:29;25.00;45.50
11491;DHT22;5802;52.832;4.758;2023-05-10T08:36:57;25.00;45.50
11491;DHT22;5802;52.832;4.758;2023-05-10T08:39:24;25.00;45.50
11491;DHT22;5802;52.832;4.758;2023-05-10T08:41:51;25.00;46.10
11491;DHT22;5802;52.832;4.758;2023-05-10T08:44:20;25.00;45.50
11491;DHT22;5802;52.832;4.758;2023-05-10T08:46:49;25.10;45.50
11491;DHT22;5802;52.832;4.758;2023-05-10T08:49:17;25.10;45.50
11491;DHT22;5802;52.832;4.758;2023-05-10T08:51:49;25.10;45.50
11491;DHT22;5802;52.832;4.758;2023-05-10T08:54:17;25.10;45.40
11491;DHT22;5802;52.832;4.758;2023-05-10T08:56:44;25.10;45.40
11491;DHT22;5802;52.832;4.758;2023-05-10T08:59:11;25.20;45.30
11491;DHT22;5802;52.832;4.758;2023-05-10T09:01:40;25.20;45.40
11491;DHT22;5802;52.832;4.758;2023-05-10T09:04:09;25.20;45.30
11491;DHT22;5802;52.832;4.758;2023-05-10T09:06:37;25.20;45.20
11491;DHT22;5802;52.832;4.758;2023-05-10T09:09:04;25.20;45.20
11491;DHT22;5802;52.832;4.758;2023-05-10T09:11:32;25.30;45.20
11491;DHT22;5802;52.832;4.758;2023-05-10T09:14:01;25.30;45.20
11491;DHT22;5802;52.832;4.758;2023-05-10T09:16:27;25.30;45.30
11491;DHT22;5802;52.832;4.758;2023-05-10T09:18:54;25.30;45.30
11491;DHT22;5802;52.832;4.758;2023-05-10T09:21:21;25.30;45.20
11491;DHT22;5802;52.832;4.758;2023-05-10T09:23:48;25.30;45.10
11491;DHT22;5802;52.832;4.758;2023-05-10T09:26:15;25.30;45.80
11491;DHT22;5802;52.832;4.758;2023-05-10T09:28:54;25.30;45.10
11491;DHT22;5802;52.832;4.758;2023-05-10T09:31:21;25.30;45.10
11491;DHT22;5802;52.832;4.758;2023-05-10T09:33:49;25.30;45.00
11491;DHT22;5802;52.832;4.758;2023-05-10T09:36:17;25.30;45.00
11491;DHT22;5802;52.832;4.758;2023-05-10T09:38:47;25.30;45.00
11491;DHT22;5802;52.832;4.758;2023-05-10T09:41:18;25.30;44.90
11491;DHT22;5802;52.832;4.758;2023-05-10T09:43:45;25.30;44.80
11491;DHT22;5802;52.832;4.758;2023-05-10T09:46:14;25.30;44.80
11491;DHT22;5802;52.832;4.758;2023-05-10T09:48:42;25.30;44.80
11491;DHT22;5802;52.832;4.758;2023-05-10T09:51:09;25.30;44.80
11491;DHT22;5802;52.832;4.758;2023-05-10T09:53:36;25.40;44.90
11491;DHT22;5802;52.832;4.758;2023-05-10T09:56:03;25.40;45.00
11491;DHT22;5802;52.832;4.758;2023-05-10T09:58:29;25.30;45.10
11491;DHT22;5802;52.832;4.758;2023-05-10T10:00:56;25.30;45.10
11491;DHT22;5802;52.832;4.758;2023-05-10T10:03:24;25.30;45.00
11491;DHT22;5802;52.832;4.758;2023-05-10T10:05:51;25.30;44.90
11491;DHT22;5802;52.832;4.758;2023-05-10T10:08:18;25.30;44.80
11491;DHT22;5802;52.832;4.758;2023-05-10T10:10:46;25.30;44.70
11491;DHT22;5802;52.832;4.758;2023-05-10T10:13:13;25.30;44.70
11491;DHT22;5802;52.832;4.758;2023-05-10T10:15:40;25.30;44.80
11491;DHT22;5802;52.832;4.758;2023-05-10T10:18:13;25.30;44.80
11491;DHT22;5802;52.832;4.758;2023-05-10T10:20:41;25.30;44.80
11491;DHT22;5802;52.832;4.758;2023-05-10T10:23:08;25.30;45.00
11491;DHT22;5802;52.832;4.758;2023-05-10T10:25:35;25.30;45.10
11491;DHT22;5802;52.832;4.758;2023-05-10T10:28:15;25.40;45.20
11491;DHT22;5802;52.832;4.758;2023-05-10T10:30:45;25.40;45.20
11491;DHT22;5802;52.832;4.758;2023-05-10T10:33:40;25.40;45.20
11491;DHT22;5802;52.832;4.758;2023-05-10T10:36:15;25.40;45.10
11491;DHT22;5802;52.832;4.758;2023-05-10T10:38:55;25.50;45.00
11491;DHT22;5802;52.832;4.758;2023-05-10T10:41:29;25.50;44.80
11491;DHT22;5802;52.832;4.758;2023-05-10T10:47:21;25.50;44.70
11491;DHT22;5802;52.832;4.758;2023-05-10T10:50:03;25.40;44.60
11491;DHT22;5802;52.832;4.758;2023-05-10T10:52:35;25.40;44.60
11491;DHT22;5802;52.832;4.758;2023-05-10T10:55:04;25.50;44.60
11491;DHT22;5802;52.832;4.758;2023-05-10T10:57:33;25.50;44.50
11491;DHT22;5802;52.832;4.758;2023-05-10T11:00:23;25.50;44.40
11491;DHT22;5802;52.832;4.758;2023-05-10T11:02:52;25.50;44.40
11491;DHT22;5802;52.832;4.758;2023-05-10T11:05:38;25.50;44.40
11491;DHT22;5802;52.832;4.758;2023-05-10T11:08:18;25.60;44.40
11491;DHT22;5802;52.832;4.758;2023-05-10T11:10:51;25.60;44.20
11491;DHT22;5802;52.832;4.758;2023-05-10T11:13:27;25.60;44.20
11491;DHT22;5802;52.832;4.758;2023-05-10T11:15:55;25.60;44.20
11491;DHT22;5802;52.832;4.758;2023-05-10T11:18:25;25.60;44.20
11491;DHT22;5802;52.832;4.758;2023-05-10T11:20:52;25.70;44.20
11491;DHT22;5802;52.832;4.758;2023-05-10T11:23:20;25.70;43.90
11491;DHT22;5802;52.832;4.758;2023-05-10T11:25:48;25.80;44.00
11491;DHT22;5802;52.832;4.758;2023-05-10T11:28:17;25.80;44.10
11491;DHT22;5802;52.832;4.758;2023-05-10T11:30:44;25.80;44.40
11491;DHT22;5802;52.832;4.758;2023-05-10T11:33:15;25.80;44.40
11491;DHT22;5802;52.832;4.758;2023-05-10T11:35:42;25.80;44.20
11491;DHT22;5802;52.832;4.758;2023-05-10T11:38:10;25.80;44.20
11491;DHT22;5802;52.832;4.758;2023-05-10T11:40:38;25.80;44.10
11491;DHT22;5802;52.832;4.758;2023-05-10T11:43:05;25.80;44.10
11491;DHT22;5802;52.832;4.758;2023-05-10T11:45:32;25.70;44.00
11491;DHT22;5802;52.832;4.758;2023-05-10T11:47:59;25.70;44.00
11491;DHT22;5802;52.832;4.758;2023-05-10T11:50:26;25.80;44.10
11491;DHT22;5802;52.832;4.758;2023-05-10T11:52:54;25.70;43.90
11491;DHT22;5802;52.832;4.758;2023-05-10T11:55:21;25.70;43.90
11491;DHT22;5802;52.832;4.758;2023-05-10T11:57:53;25.80;44.10
11491;DHT22;5802;52.832;4.758;2023-05-10T12:00:20;25.70;43.90
11491;DHT22;5802;52.832;4.758;2023-05-10T12:02:48;25.80;44.00
11491;DHT22;5802;52.832;4.758;2023-05-10T12:05:15;25.80;43.90
11491;DHT22;5802;52.832;4.758;2023-05-10T12:07:42;25.80;43.90
11491;DHT22;5802;52.832;4.758;2023-05-10T12:10:11;25.80;44.00
11491;DHT22;5802;52.832;4.758;2023-05-10T12:12:41;25.80;44.10
11491;DHT22;5802;52.832;4.758;2023-05-10T12:15:17;25.70;43.80
11491;DHT22;5802;52.832;4.758;2023-05-10T12:17:45;25.80;43.90
11491;DHT22;5802;52.832;4.758;2023-05-10T12:20:15;25.80;43.80
11491;DHT22;5802;52.832;4.758;2023-05-10T12:22:45;25.80;43.70
11491;DHT22;5802;52.832;4.758;2023-05-10T12:25:12;25.80;43.60
11491;DHT22;5802;52.832;4.758;2023-05-10T12:27:40;25.80;43.60
11491;DHT22;5802;52.832;4.758;2023-05-10T12:30:08;25.80;43.70
11491;DHT22;5802;52.832;4.758;2023-05-10T12:32:40;25.70;43.50
11491;DHT22;5802;52.832;4.758;2023-05-10T12:35:07;25.70;43.60
11491;DHT22;5802;52.832;4.758;2023-05-10T12:37:34;25.70;43.70
11491;DHT22;5802;52.832;4.758;2023-05-10T12:40:06;25.70;43.80
11491;DHT22;5802;52.832;4.758;2023-05-10T12:42:35;25.70;43.90
11491;DHT22;5802;52.832;4.758;2023-05-10T12:45:02;25.70;43.80
11491;DHT22;5802;52.832;4.758;2023-05-10T12:47:29;25.80;43.90
11491;DHT22;5802;52.832;4.758;2023-05-10T12:49:57;25.80;43.90
11491;DHT22;5802;52.832;4.758;2023-05-10T12:52:24;25.80;43.90
11491;DHT22;5802;52.832;4.758;2023-05-10T12:54:51;25.80;43.90
11491;DHT22;5802;52.832;4.758;2023-05-10T12:57:18;25.80;43.90
11491;DHT22;5802;52.832;4.758;2023-05-10T12:59:45;25.80;43.90
11491;DHT22;5802;52.832;4.758;2023-05-10T13:02:11;25.90;43.90
11491;DHT22;5802;52.832;4.758;2023-05-10T13:04:38;25.90;43.90
11491;DHT22;5802;52.832;4.758;2023-05-10T13:07:06;25.90;43.90
11491;DHT22;5802;52.832;4.758;2023-05-10T13:09:33;25.90;43.80
11491;DHT22;5802;52.832;4.758;2023-05-10T13:12:00;26.00;43.90
11491;DHT22;5802;52.832;4.758;2023-05-10T13:14:27;26.00;44.00
11491;DHT22;5802;52.832;4.758;2023-05-10T13:16:54;26.10;44.10
11491;DHT22;5802;52.832;4.758;2023-05-10T13:19:21;26.10;44.20
11491;DHT22;5802;52.832;4.758;2023-05-10T13:21:47;26.10;44.10
11491;DHT22;5802;52.832;4.758;2023-05-10T13:24:15;26.20;44.00
11491;DHT22;5802;52.832;4.758;2023-05-10T13:26:43;26.20;44.00
11491;DHT22;5802;52.832;4.758;2023-05-10T13:29:09;26.20;43.70
11491;DHT22;5802;52.832;4.758;2023-05-10T13:31:36;26.20;43.60
11491;DHT22;5802;52.832;4.758;2023-05-10T13:34:04;26.20;43.40
11491;DHT22;5802;52.832;4.758;2023-05-10T13:36:31;26.20;43.10
11491;DHT22;5802;52.832;4.758;2023-05-10T13:38:58;26.20;42.70
11491;DHT22;5802;52.832;4.758;2023-05-10T13:41:28;26.20;42.40
11491;DHT22;5802;52.832;4.758;2023-05-10T13:43:54;26.10;42.20
11491;DHT22;5802;52.832;4.758;2023-05-10T13:46:21;26.10;42.20
11491;DHT22;5802;52.832;4.758;2023-05-10T13:48:48;26.00;42.50
11491;DHT22;5802;52.832;4.758;2023-05-10T13:51:15;26.00;42.70
11491;DHT22;5802;52.832;4.758;2023-05-10T13:53:42;26.00;42.90
11491;DHT22;5802;52.832;4.758;2023-05-10T13:56:08;26.00;43.00
11491;DHT22;5802;52.832;4.758;2023-05-10T13:58:36;26.00;43.10
11491;DHT22;5802;52.832;4.758;2023-05-10T14:01:03;26.10;43.20
11491;DHT22;5802;52.832;4.758;2023-05-10T14:03:30;26.10;43.30
11491;DHT22;5802;52.832;4.758;2023-05-10T14:05:58;26.10;43.30
11491;DHT22;5802;52.832;4.758;2023-05-10T14:08:24;26.10;43.30
11491;DHT22;5802;52.832;4.758;2023-05-10T14:10:53;26.20;43.40
11491;DHT22;5802;52.832;4.758;2023-05-10T14:13:21;26.20;43.30
11491;DHT22;5802;52.832;4.758;2023-05-10T14:15:49;26.20;43.30
11491;DHT22;5802;52.832;4.758;2023-05-10T14:18:16;26.20;43.30
11491;DHT22;5802;52.832;4.758;2023-05-10T14:20:42;26.30;43.40
11491;DHT22;5802;52.832;4.758;2023-05-10T14:23:09;26.30;43.30
11491;DHT22;5802;52.832;4.758;2023-05-10T14:25:36;26.30;43.20
11491;DHT22;5802;52.832;4.758;2023-05-10T14:28:03;26.30;43.20
11491;DHT22;5802;52.832;4.758;2023-05-10T14:30:31;26.30;43.10
11491;DHT22;5802;52.832;4.758;2023-05-10T14:32:59;26.30;43.00
11491;DHT22;5802;52.832;4.758;2023-05-10T14:35:26;26.30;43.00
11491;DHT22;5802;52.832;4.758;2023-05-10T14:37:53;26.30;43.00
11491;DHT22;5802;52.832;4.758;2023-05-10T14:40:20;26.40;43.10
11491;DHT22;5802;52.832;4.758;2023-05-10T14:42:47;26.40;43.00
11491;DHT22;5802;52.832;4.758;2023-05-10T14:45:13;26.40;42.90
11491;DHT22;5802;52.832;4.758;2023-05-10T14:47:40;26.40;43.00
11491;DHT22;5802;52.832;4.758;2023-05-10T14:50:09;26.40;42.90
11491;DHT22;5802;52.832;4.758;2023-05-10T14:52:35;26.40;43.00
11491;DHT22;5802;52.832;4.758;2023-05-10T14:55:05;26.40;42.80
11491;DHT22;5802;52.832;4.758;2023-05-10T14:57:32;26.40;42.70
11491;DHT22;5802;52.832;4.758;2023-05-10T14:59:59;26.40;42.40
11491;DHT22;5802;52.832;4.758;2023-05-10T15:02:26;26.40;42.40
11491;DHT22;5802;52.832;4.758;2023-05-10T15:04:54;26.40;42.20
11491;DHT22;5802;52.832;4.758;2023-05-10T15:07:22;26.50;42.40
11491;DHT22;5802;52.832;4.758;2023-05-10T15:09:49;26.40;42.40
11491;DHT22;5802;52.832;4.758;2023-05-10T15:12:17;26.40;42.50
11491;DHT22;5802;52.832;4.758;2023-05-10T15:14:44;26.40;42.50
11491;DHT22;5802;52.832;4.758;2023-05-10T15:17:10;26.40;42.50
11491;DHT22;5802;52.832;4.758;2023-05-10T15:19:37;26.40;42.50
11491;DHT22;5802;52.832;4.758;2023-05-10T15:22:04;26.40;42.50
11491;DHT22;5802;52.832;4.758;2023-05-10T15:24:32;26.30;42.40
11491;DHT22;5802;52.832;4.758;2023-05-10T15:26:59;26.40;42.40
11491;DHT22;5802;52.832;4.758;2023-05-10T15:29:26;26.30;42.30
11491;DHT22;5802;52.832;4.758;2023-05-10T15:31:55;26.40;42.40
11491;DHT22;5802;52.832;4.758;2023-05-10T15:34:21;26.30;42.40
11491;DHT22;5802;52.832;4.758;2023-05-10T15:36:48;26.40;42.40
11491;DHT22;5802;52.832;4.758;2023-05-10T15:39:15;26.40;42.30
11491;DHT22;5802;52.832;4.758;2023-05-10T15:41:43;26.40;42.40
11491;DHT22;5802;52.832;4.758;2023-05-10T15:44:10;26.40;42.40
11491;DHT22;5802;52.832;4.758;2023-05-10T15:46:37;26.30;42.30
11491;DHT22;5802;52.832;4.758;2023-05-10T15:49:04;26.40;42.20
11491;DHT22;5802;52.832;4.758;2023-05-10T15:51:31;26.30;42.20
11491;DHT22;5802;52.832;4.758;2023-05-10T15:53:58;26.30;42.30
11491;DHT22;5802;52.832;4.758;2023-05-10T15:56:27;26.30;42.20
11491;DHT22;5802;52.832;4.758;2023-05-10T15:58:55;26.30;42.30